sensor_id;sensor_type;location;lat;lon;timestamp;pressure;altitude;pressure_sealevel;temperature;humidity
20105;BME280;10212;42.714;23.310;2023-03-24T00:13:31;95269.19;;;5.52;100.00
20105;BME280;10212;42.714;23.310;2023-03-24T00:23:37;95289.63;;;5.39;100.00
20105;BME280;10212;42.714;23.310;2023-03-24T00:33:37;95281.91;;;5.14;100.00
20105;BME280;10212;42.714;23.310;2023-03-24T00:43:39;95280.63;;;4.93;100.00
20105;BME280;10212;42.714;23.310;2023-03-24T00:53:40;95280.28;;;4.79;100.00
20105;BME280;10212;42.714;23.310;2023-03-24T01:03:42;95276.75;;;4.55;100.00
20105;BME280;10212;42.714;23.310;2023-03-24T01:13:47;95278.66;;;4.45;100.00
20105;BME280;10212;42.714;23.310;2023-03-24T01:23:48;95259.59;;;4.38;100.00
20105;BME280;10212;42.714;23.310;2023-03-24T01:33:48;95261.22;;;4.30;100.00
20105;BME280;10212;42.714;23.310;2023-03-24T01:43:49;95263.13;;;4.20;100.00
20105;BME280;10212;42.714;23.310;2023-03-24T02:03:53;95264.88;;;4.03;100.00
20105;BME280;10212;42.714;23.310;2023-03-24T02:13:53;95270.81;;;3.95;100.00
20105;BME280;10212;42.714;23.310;2023-03-24T02:23:56;95276.94;;;3.94;100.00
20105;BME280;10212;42.714;23.310;2023-03-24T02:54:39;95242.81;;;4.17;100.00
20105;BME280;10212;42.714;23.310;2023-03-24T03:04:43;95232.66;;;4.24;100.00
20105;BME280;10212;42.714;23.310;2023-03-24T03:14:50;95238.63;;;4.32;100.00
20105;BME280;10212;42.714;23.310;2023-03-24T03:24:51;95243.00;;;4.40;100.00
20105;BME280;10212;42.714;23.310;2023-03-24T03:35:01;95227.97;;;4.36;100.00
20105;BME280;10212;42.714;23.310;2023-03-24T03:45:06;95234.72;;;4.12;100.00
20105;BME280;10212;42.714;23.310;2023-03-24T03:55:08;95248.38;;;3.87;100.00
20105;BME280;10212;42.714;23.310;2023-03-24T04:05:12;95247.50;;;3.70;100.00
20105;BME280;10212;42.714;23.310;2023-03-24T04:35:36;95248.94;;;3.29;100.00
20105;BME280;10212;42.714;23.310;2023-03-24T04:45:39;95274.13;;;3.35;100.00
20105;BME280;10212;42.714;23.310;2023-03-24T05:05:47;95287.72;;;3.54;100.00
20105;BME280;10212;42.714;23.310;2023-03-24T05:15:48;95287.72;;;3.54;100.00
20105;BME280;10212;42.714;23.310;2023-03-24T05:25:49;95306.59;;;3.90;100.00
20105;BME280;10212;42.714;23.310;2023-03-24T05:35:49;95302.00;;;4.18;100.00
20105;BME280;10212;42.714;23.310;2023-03-24T05:45:50;95300.63;;;4.49;100.00
20105;BME280;10212;42.714;23.310;2023-03-24T05:55:50;95307.75;;;4.72;100.00
20105;BME280;10212;42.714;23.310;2023-03-24T06:05:52;95299.03;;;4.98;98.47
20105;BME280;10212;42.714;23.310;2023-03-24T06:15:52;95299.81;;;5.15;97.43
20105;BME280;10212;42.714;23.310;2023-03-24T06:25:54;95307.03;;;5.45;95.91
20105;BME280;10212;42.714;23.310;2023-03-24T06:35:54;95306.13;;;5.86;94.63
20105;BME280;10212;42.714;23.310;2023-03-24T06:45:55;95311.19;;;6.20;92.17
20105;BME280;10212;42.714;23.310;2023-03-24T06:55:55;95311.22;;;6.43;91.64
20105;BME280;10212;42.714;23.310;2023-03-24T07:05:55;95308.25;;;6.78;91.07
20105;BME280;10212;42.714;23.310;2023-03-24T07:15:58;95313.78;;;6.98;90.20
20105;BME280;10212;42.714;23.310;2023-03-24T07:25:58;95322.19;;;7.39;88.80
20105;BME280;10212;42.714;23.310;2023-03-24T07:35:59;95318.97;;;7.67;88.53
20105;BME280;10212;42.714;23.310;2023-03-24T07:45:59;95307.97;;;7.95;87.01
20105;BME280;10212;42.714;23.310;2023-03-24T07:55:59;95303.00;;;8.53;83.93
20105;BME280;10212;42.714;23.310;2023-03-24T08:06:00;95294.00;;;8.92;81.16
20105;BME280;10212;42.714;23.310;2023-03-24T08:16:01;95280.06;;;9.29;79.48
20105;BME280;10212;42.714;23.310;2023-03-24T08:26:02;95272.72;;;9.75;77.01
20105;BME280;10212;42.714;23.310;2023-03-24T08:36:02;95262.25;;;10.10;74.12
20105;BME280;10212;42.714;23.310;2023-03-24T08:46:04;95244.53;;;10.48;72.92
20105;BME280;10212;42.714;23.310;2023-03-24T08:56:05;95233.72;;;10.71;68.04
20105;BME280;10212;42.714;23.310;2023-03-24T09:06:06;95215.47;;;11.05;67.93
20105;BME280;10212;42.714;23.310;2023-03-24T09:16:07;95208.34;;;11.40;66.38
20105;BME280;10212;42.714;23.310;2023-03-24T09:26:07;95203.38;;;11.84;64.07
20105;BME280;10212;42.714;23.310;2023-03-24T09:36:08;95184.38;;;12.16;62.47
20105;BME280;10212;42.714;23.310;2023-03-24T09:46:10;95171.63;;;12.59;61.12
20105;BME280;10212;42.714;23.310;2023-03-24T09:56:13;95157.59;;;12.97;60.22
20105;BME280;10212;42.714;23.310;2023-03-24T10:06:20;95153.03;;;13.49;58.08
20105;BME280;10212;42.714;23.310;2023-03-24T10:16:29;95127.84;;;13.97;58.33
20105;BME280;10212;42.714;23.310;2023-03-24T10:46:53;95108.38;;;14.84;51.33
20105;BME280;10212;42.714;23.310;2023-03-24T11:07:41;95100.88;;;15.70;48.27
20105;BME280;10212;42.714;23.310;2023-03-24T11:17:22;95077.22;;;15.70;45.80
20105;BME280;10212;42.714;23.310;2023-03-24T11:27:23;95062.00;;;16.19;44.79
20105;BME280;10212;42.714;23.310;2023-03-24T11:37:24;95046.63;;;16.10;40.28
20105;BME280;10212;42.714;23.310;2023-03-24T11:47:30;95028.78;;;16.69;35.73
20105;BME280;10212;42.714;23.310;2023-03-24T11:57:39;95017.75;;;17.12;36.41
20105;BME280;10212;42.714;23.310;2023-03-24T12:58:04;94930.00;;;19.64;31.41
20105;BME280;10212;42.714;23.310;2023-03-24T13:08:14;94922.34;;;19.52;30.69
20105;BME280;10212;42.714;23.310;2023-03-24T13:18:20;94917.53;;;19.18;31.13
20105;BME280;10212;42.714;23.310;2023-03-24T13:28:25;94909.47;;;18.71;30.37
20105;BME280;10212;42.714;23.310;2023-03-24T13:48:42;94889.34;;;18.60;29.78
20105;BME280;10212;42.714;23.310;2023-03-24T13:58:47;94876.22;;;18.80;29.95
20105;BME280;10212;42.714;23.310;2023-03-24T14:18:51;94850.94;;;19.37;28.28
20105;BME280;10212;42.714;23.310;2023-03-24T14:29:25;94845.66;;;19.58;27.51
20105;BME280;10212;42.714;23.310;2023-03-24T14:39:35;94844.56;;;19.69;28.06
20105;BME280;10212;42.714;23.310;2023-03-24T14:49:39;94844.50;;;20.00;28.42
20105;BME280;10212;42.714;23.310;2023-03-24T15:10:00;94833.19;;;19.84;27.89
20105;BME280;10212;42.714;23.310;2023-03-24T15:20:00;94831.38;;;19.48;29.02
20105;BME280;10212;42.714;23.310;2023-03-24T15:30:00;94833.75;;;19.13;28.93
20105;BME280;10212;42.714;23.310;2023-03-24T15:40:01;94832.91;;;18.71;28.51
20105;BME280;10212;42.714;23.310;2023-03-24T15:50:03;94833.69;;;18.87;29.04
20105;BME280;10212;42.714;23.310;2023-03-24T16:00:10;94833.38;;;18.63;30.76
20105;BME280;10212;42.714;23.310;2023-03-24T16:10:26;94829.09;;;18.30;32.85
20105;BME280;10212;42.714;23.310;2023-03-24T16:20:31;94824.91;;;17.91;33.80
20105;BME280;10212;42.714;23.310;2023-03-24T16:30:33;94825.91;;;17.37;34.69
20105;BME280;10212;42.714;23.310;2023-03-24T16:40:38;94831.31;;;16.64;35.27
20105;BME280;10212;42.714;23.310;2023-03-24T16:50:40;94830.22;;;16.15;36.84
20105;BME280;10212;42.714;23.310;2023-03-24T17:00:41;94831.59;;;15.61;37.98
20105;BME280;10212;42.714;23.310;2023-03-24T17:10:45;94826.84;;;15.23;39.52
20105;BME280;10212;42.714;23.310;2023-03-24T17:20:46;94847.66;;;14.95;40.88
20105;BME280;10212;42.714;23.310;2023-03-24T17:30:52;94850.25;;;14.66;42.74
20105;BME280;10212;42.714;23.310;2023-03-24T17:40:59;94862.34;;;14.38;48.47
20105;BME280;10212;42.714;23.310;2023-03-24T17:51:00;94856.53;;;13.83;55.55
20105;BME280;10212;42.714;23.310;2023-03-24T18:01:01;94866.38;;;13.33;59.54
20105;BME280;10212;42.714;23.310;2023-03-24T18:11:05;94862.06;;;12.96;61.36
20105;BME280;10212;42.714;23.310;2023-03-24T18:21:06;94867.75;;;12.62;63.34
20105;BME280;10212;42.714;23.310;2023-03-24T18:31:24;94867.44;;;12.39;63.58
20105;BME280;10212;42.714;23.310;2023-03-24T18:41:25;94874.19;;;12.10;64.51
20105;BME280;10212;42.714;23.310;2023-03-24T18:51:27;94882.41;;;11.88;65.92
20105;BME280;10212;42.714;23.310;2023-03-24T19:01:27;94881.75;;;11.74;65.72
20105;BME280;10212;42.714;23.310;2023-03-24T19:11:29;94892.34;;;11.53;67.19
20105;BME280;10212;42.714;23.310;2023-03-24T19:21:29;94891.47;;;11.41;67.24
20105;BME280;10212;42.714;23.310;2023-03-24T19:31:29;94885.53;;;11.27;67.90
20105;BME280;10212;42.714;23.310;2023-03-24T19:41:32;94910.50;;;11.16;67.57
20105;BME280;10212;42.714;23.310;2023-03-24T19:51:32;94903.78;;;11.01;67.63
20105;BME280;10212;42.714;23.310;2023-03-24T20:01:33;94907.19;;;10.95;67.33
20105;BME280;10212;42.714;23.310;2023-03-24T20:11:34;94915.50;;;10.85;67.89
20105;BME280;10212;42.714;23.310;2023-03-24T20:21:35;94914.53;;;10.72;68.47
20105;BME280;10212;42.714;23.310;2023-03-24T20:31:35;94913.59;;;10.60;68.52
20105;BME280;10212;42.714;23.310;2023-03-24T20:41:35;94905.00;;;10.46;68.75
20105;BME280;10212;42.714;23.310;2023-03-24T20:51:36;94906.88;;;10.25;69.63
20105;BME280;10212;42.714;23.310;2023-03-24T21:01:57;94906.50;;;10.15;69.53
20105;BME280;10212;42.714;23.310;2023-03-24T21:12:01;94912.13;;;10.05;69.78
20105;BME280;10212;42.714;23.310;2023-03-24T21:22:02;94915.75;;;9.97;69.40
20105;BME280;10212;42.714;23.310;2023-03-24T21:32:02;94925.78;;;9.86;70.28
20105;BME280;10212;42.714;23.310;2023-03-24T21:42:02;94926.00;;;9.78;70.03
20105;BME280;10212;42.714;23.310;2023-03-24T21:52:05;94922.56;;;9.64;70.23
20105;BME280;10212;42.714;23.310;2023-03-24T22:02:06;94920.38;;;9.54;70.46
20105;BME280;10212;42.714;23.310;2023-03-24T22:12:07;94918.59;;;9.48;69.79
20105;BME280;10212;42.714;23.310;2023-03-24T22:22:07;94929.38;;;9.45;69.40
20105;BME280;10212;42.714;23.310;2023-03-24T22:32:08;94917.75;;;9.27;70.49
20105;BME280;10212;42.714;23.310;2023-03-24T22:42:08;94932.97;;;9.16;70.32
20105;BME280;10212;42.714;23.310;2023-03-24T22:52:08;94935.34;;;8.98;71.41
20105;BME280;10212;42.714;23.310;2023-03-24T23:02:09;94934.25;;;8.72;73.60
20105;BME280;10212;42.714;23.310;2023-03-24T23:12:09;94918.34;;;8.53;75.48
20105;BME280;10212;42.714;23.310;2023-03-24T23:22:10;94915.47;;;8.34;75.89
20105;BME280;10212;42.714;23.310;2023-03-24T23:32:10;94922.59;;;8.18;77.53
20105;BME280;10212;42.714;23.310;2023-03-24T23:42:10;94921.53;;;8.06;77.52
20105;BME280;10212;42.714;23.310;2023-03-24T23:52:11;94915.41;;;7.85;79.54
